createdAt,value
2018-11-26T00:00:14.316Z,4.26
2018-11-26T00:02:41.713Z,4.24
2018-11-26T00:05:09.034Z,4.25
2018-11-26T00:07:36.289Z,4.22
2018-11-26T00:10:15.247Z,4.27
2018-11-26T00:12:42.511Z,4.27
2018-11-26T00:15:09.834Z,4.22
2018-11-26T00:17:37.129Z,4.25
2018-11-26T00:20:05.155Z,4.23
2018-11-26T00:22:32.432Z,4.21
2018-11-26T00:24:59.688Z,4.20
2018-11-26T00:27:27.027Z,4.24
2018-11-26T00:29:54.284Z,4.21
2018-11-26T00:32:21.544Z,4.19
2018-11-26T00:34:48.908Z,4.20
2018-11-26T00:37:16.185Z,4.17
2018-11-26T00:39:43.465Z,4.17
2018-11-26T00:42:10.713Z,4.15
2018-11-26T00:44:38.019Z,4.15
2018-11-26T00:47:05.341Z,4.14
2018-11-26T00:49:32.682Z,4.13
2018-11-26T00:51:59.971Z,4.11
2018-11-26T00:54:27.250Z,4.08
2018-11-26T00:56:54.584Z,4.10
2018-11-26T00:59:21.863Z,4.12
2018-11-26T01:01:49.193Z,4.09
2018-11-26T01:04:16.523Z,4.09
2018-11-26T01:06:43.827Z,4.08
2018-11-26T01:09:11.244Z,4.07
2018-11-26T01:11:38.552Z,4.05
2018-11-26T01:14:06.577Z,4.08
2018-11-26T01:16:33.862Z,4.07
2018-11-26T01:19:03.430Z,4.06
2018-11-26T01:24:20.912Z,4.07
2018-11-26T01:26:48.298Z,4.05
2018-11-26T01:29:16.427Z,4.03
2018-11-26T01:31:43.730Z,4.05
2018-11-26T01:34:11.066Z,4.07
2018-11-26T01:36:38.375Z,4.04
2018-11-26T01:39:07.916Z,4.03
2018-11-26T01:41:35.887Z,4.04
2018-11-26T01:44:03.268Z,4.03
2018-11-26T01:46:30.506Z,4.04
2018-11-26T01:48:57.777Z,4.06
2018-11-26T01:51:25.078Z,4.03
2018-11-26T01:53:53.088Z,4.00
2018-11-26T01:56:21.012Z,4.02
2018-11-26T01:58:48.339Z,4.02
2018-11-26T02:01:15.663Z,4.01
2018-11-26T02:03:42.978Z,3.99
2018-11-26T02:06:10.226Z,3.97
2018-11-26T02:08:37.558Z,3.99
2018-11-26T02:11:05.309Z,4.01
2018-11-26T02:13:32.609Z,4.03
2018-11-26T02:15:59.895Z,4.01
2018-11-26T02:18:27.115Z,4.01
2018-11-26T02:20:55.927Z,4.02
2018-11-26T02:23:23.175Z,4.00
2018-11-26T02:25:50.492Z,3.96
2018-11-26T02:28:17.753Z,3.95
2018-11-26T02:30:45.036Z,3.94
2018-11-26T02:33:12.289Z,3.94
2018-11-26T02:35:39.566Z,3.96
2018-11-26T02:38:06.850Z,3.93
2018-11-26T02:40:34.143Z,3.93
2018-11-26T02:43:01.631Z,3.94
2018-11-26T02:45:29.561Z,3.91
2018-11-26T02:47:56.849Z,3.91
2018-11-26T02:50:24.087Z,3.92
2018-11-26T02:52:51.387Z,3.88
2018-11-26T02:55:19.354Z,3.90
2018-11-26T02:57:47.745Z,3.85
2018-11-26T03:00:15.842Z,3.87
2018-11-26T03:02:44.684Z,3.87
2018-11-26T03:05:29.015Z,3.88
2018-11-26T03:07:56.329Z,3.88
2018-11-26T03:10:23.678Z,3.88
2018-11-26T03:12:50.963Z,3.88
2018-11-26T03:15:18.429Z,3.87
2018-11-26T03:17:45.720Z,3.84
2018-11-26T03:20:13.017Z,3.86
2018-11-26T03:22:40.263Z,3.83
2018-11-26T03:25:09.084Z,3.82
2018-11-26T03:27:36.354Z,3.82
2018-11-26T03:30:11.624Z,3.86
2018-11-26T03:32:38.872Z,3.83
2018-11-26T03:35:07.608Z,3.82
2018-11-26T03:37:34.854Z,3.83
2018-11-26T03:40:02.600Z,3.82
2018-11-26T03:42:29.854Z,3.82
2018-11-26T03:44:57.091Z,3.83
2018-11-26T03:47:24.460Z,3.83
2018-11-26T03:49:51.712Z,3.83
2018-11-26T03:52:19.072Z,3.78
2018-11-26T03:54:46.328Z,3.80
2018-11-26T03:57:13.627Z,3.84
2018-11-26T03:59:40.843Z,3.82
2018-11-26T04:02:08.135Z,3.83
2018-11-26T04:04:35.430Z,3.82
2018-11-26T04:07:02.808Z,3.80
2018-11-26T04:09:30.048Z,3.81
2018-11-26T04:11:57.355Z,3.85
2018-11-26T04:14:24.611Z,3.81
2018-11-26T04:17:05.399Z,3.80
2018-11-26T04:19:33.649Z,3.81
2018-11-26T04:22:02.565Z,3.81
2018-11-26T04:24:31.330Z,3.82
2018-11-26T04:26:58.629Z,3.80
2018-11-26T04:29:25.972Z,3.83
2018-11-26T04:31:53.536Z,3.83
2018-11-26T04:34:20.901Z,3.84
2018-11-26T04:36:48.237Z,3.83
2018-11-26T04:39:15.528Z,3.83
2018-11-26T04:41:43.415Z,3.84
2018-11-26T04:44:11.276Z,3.85
2018-11-26T04:46:38.492Z,3.86
2018-11-26T04:49:05.799Z,3.86
2018-11-26T04:51:33.137Z,3.86
2018-11-26T04:54:00.409Z,3.85
2018-11-26T04:56:27.649Z,3.85
2018-11-26T04:58:54.890Z,3.87
2018-11-26T05:01:22.187Z,3.88
2018-11-26T05:03:49.463Z,3.85
2018-11-26T05:06:16.732Z,3.86
2018-11-26T05:08:44.291Z,3.87
2018-11-26T05:11:11.647Z,3.89
2018-11-26T05:13:38.974Z,3.92
2018-11-26T05:16:06.340Z,3.92
2018-11-26T05:18:33.593Z,3.87
2018-11-26T05:21:00.916Z,3.92
2018-11-26T05:23:28.215Z,3.91
2018-11-26T05:25:55.737Z,3.92
2018-11-26T05:28:23.056Z,3.90
2018-11-26T05:30:50.303Z,3.95
2018-11-26T05:33:17.561Z,3.95
2018-11-26T05:35:44.865Z,3.95
2018-11-26T05:38:12.196Z,3.95
2018-11-26T05:40:39.452Z,3.91
2018-11-26T05:43:06.699Z,3.93
2018-11-26T05:45:33.984Z,3.92
2018-11-26T05:48:01.480Z,3.92
2018-11-26T05:50:28.702Z,3.92
2018-11-26T05:52:55.983Z,3.94
2018-11-26T05:55:23.283Z,3.92
2018-11-26T05:57:51.416Z,3.91
2018-11-26T06:00:23.176Z,3.93
2018-11-26T06:02:50.451Z,3.91
2018-11-26T06:05:17.752Z,3.91
2018-11-26T06:07:45.277Z,3.90
2018-11-26T06:10:12.514Z,3.92
2018-11-26T06:12:39.855Z,3.89
2018-11-26T06:15:09.304Z,3.89
2018-11-26T06:17:36.593Z,3.88
2018-11-26T06:20:04.777Z,3.86
2018-11-26T06:22:32.095Z,3.83
2018-11-26T06:24:59.352Z,3.82
2018-11-26T06:27:26.649Z,3.82
2018-11-26T06:29:54.223Z,3.74
2018-11-26T06:32:21.635Z,3.75
2018-11-26T06:34:48.942Z,3.70
2018-11-26T06:37:16.178Z,3.70
2018-11-26T06:39:44.144Z,3.66
2018-11-26T06:42:11.435Z,3.55
2018-11-26T06:44:38.688Z,3.58
2018-11-26T06:47:05.992Z,3.54
2018-11-26T06:49:33.626Z,3.46
2018-11-26T06:52:01.044Z,3.44
2018-11-26T06:54:28.492Z,3.43
2018-11-26T06:56:55.872Z,3.35
2018-11-26T06:59:23.259Z,3.37
2018-11-26T07:01:51.682Z,3.35
2018-11-26T07:04:18.138Z,3.35
2018-11-26T07:06:45.487Z,3.32
2018-11-26T07:09:12.798Z,3.32
2018-11-26T07:11:40.404Z,3.32
2018-11-26T07:14:07.815Z,3.33
2018-11-26T07:16:35.278Z,3.28
2018-11-26T07:19:02.715Z,3.29
2018-11-26T07:21:30.214Z,3.28
2018-11-26T07:23:57.640Z,3.28
2018-11-26T07:26:25.104Z,3.26
2018-11-26T07:28:52.596Z,3.26
2018-11-26T07:31:22.530Z,3.25
2018-11-26T07:33:50.017Z,3.19
2018-11-26T07:36:20.300Z,3.20
2018-11-26T07:38:48.275Z,3.24
2018-11-26T07:41:16.023Z,3.19
2018-11-26T07:43:43.419Z,3.12
2018-11-26T07:46:10.824Z,3.12
2018-11-26T07:48:38.258Z,3.11
2018-11-26T07:51:06.211Z,3.11
2018-11-26T07:53:33.680Z,3.09
2018-11-26T07:56:01.680Z,3.06
2018-11-26T07:58:31.542Z,3.08
2018-11-26T08:00:58.984Z,3.05
2018-11-26T08:03:27.163Z,3.06
2018-11-26T08:05:54.627Z,3.08
2018-11-26T08:08:25.230Z,3.04
2018-11-26T08:10:54.100Z,3.03
2018-11-26T08:13:21.714Z,3.06
2018-11-26T08:16:02.962Z,3.11
2018-11-26T08:18:45.371Z,3.06
2018-11-26T08:21:27.385Z,3.06
2018-11-26T08:24:09.768Z,3.06
2018-11-26T08:26:38.795Z,3.05
2018-11-26T08:29:07.009Z,3.05
2018-11-26T08:31:36.968Z,3.05
2018-11-26T08:34:05.064Z,2.99
2018-11-26T08:36:34.440Z,3.04
2018-11-26T08:39:08.764Z,2.98
2018-11-26T08:41:43.289Z,3.01
2018-11-26T08:44:12.785Z,3.01
2018-11-26T08:46:51.815Z,3.01
2018-11-26T08:49:27.579Z,2.93
2018-11-26T08:51:56.336Z,2.90
2018-11-26T08:54:29.589Z,2.85
2018-11-26T08:56:57.997Z,2.76
2018-11-26T08:59:25.476Z,2.74
2018-11-26T09:01:59.591Z,2.78
2018-11-26T09:04:30.999Z,2.77
2018-11-26T09:06:59.023Z,2.77
2018-11-26T09:09:26.742Z,2.81
2018-11-26T09:11:54.024Z,2.89
2018-11-26T09:14:22.537Z,2.84
2018-11-26T09:16:50.162Z,2.85
2018-11-26T09:19:17.680Z,2.87
2018-11-26T09:21:46.135Z,2.86
2018-11-26T09:24:13.620Z,2.84
2018-11-26T09:26:41.161Z,2.79
2018-11-26T09:29:08.643Z,2.75
2018-11-26T09:31:36.872Z,2.76
2018-11-26T09:34:04.686Z,2.71
2018-11-26T09:36:32.357Z,2.73
2018-11-26T09:38:59.924Z,2.67
2018-11-26T09:41:28.362Z,2.62
2018-11-26T09:43:58.560Z,2.64
2018-11-26T09:46:26.109Z,2.58
2018-11-26T09:48:55.328Z,2.63
2018-11-26T09:51:22.967Z,2.63
2018-11-26T09:53:50.539Z,2.59
2018-11-26T09:56:18.150Z,2.61
2018-11-26T09:58:45.703Z,2.52
2018-11-26T10:01:13.655Z,2.50
2018-11-26T10:03:41.472Z,2.51
2018-11-26T10:06:09.534Z,2.42
2018-11-26T10:08:37.669Z,2.41
2018-11-26T10:11:05.576Z,2.39
2018-11-26T10:13:33.104Z,2.33
2018-11-26T10:16:01.465Z,2.32
2018-11-26T10:18:28.849Z,2.25
2018-11-26T10:20:56.298Z,2.27
2018-11-26T10:23:23.737Z,2.29
2018-11-26T10:25:51.555Z,2.24
2018-11-26T10:28:19.015Z,2.26
2018-11-26T10:30:46.493Z,2.18
2018-11-26T10:33:14.941Z,2.22
2018-11-26T10:35:42.105Z,2.20
2018-11-26T10:38:10.621Z,2.21
2018-11-26T10:40:38.674Z,2.27
2018-11-26T10:43:11.529Z,2.23
2018-11-26T10:45:34.810Z,2.22
2018-11-26T10:48:02.445Z,2.25
2018-11-26T10:50:29.988Z,2.26
2018-11-26T10:52:58.767Z,2.30
2018-11-26T10:55:28.460Z,2.28
2018-11-26T10:57:56.202Z,2.29
2018-11-26T11:03:03.521Z,2.16
2018-11-26T11:05:31.064Z,2.12
2018-11-26T11:07:59.882Z,2.11
2018-11-26T11:10:28.788Z,2.13
2018-11-26T11:12:56.696Z,2.02
2018-11-26T11:15:24.366Z,2.05
2018-11-26T11:17:53.300Z,2.01
2018-11-26T11:20:35.230Z,2.03
2018-11-26T11:23:03.817Z,2.02
2018-11-26T11:25:32.331Z,2.00
2018-11-26T11:27:59.965Z,2.01
2018-11-26T11:30:29.094Z,1.93
2018-11-26T11:32:56.913Z,2.00
2018-11-26T11:35:24.274Z,1.90
2018-11-26T11:37:52.632Z,1.90
2018-11-26T11:40:27.305Z,1.90
2018-11-26T11:42:54.737Z,1.81
2018-11-26T11:45:22.624Z,1.77
2018-11-26T11:47:50.248Z,1.81
2018-11-26T11:50:18.799Z,1.80
2018-11-26T11:52:47.418Z,1.81
2018-11-26T11:55:16.125Z,1.86
2018-11-26T11:57:44.190Z,1.87
2018-11-26T12:00:22.624Z,1.80
2018-11-26T12:02:50.263Z,1.81
2018-11-26T12:05:17.779Z,1.85
2018-11-26T12:07:47.050Z,1.86
2018-11-26T12:10:14.518Z,1.84
2018-11-26T12:12:42.163Z,1.79
2018-11-26T12:15:12.251Z,1.83
2018-11-26T12:17:40.172Z,1.84
2018-11-26T12:20:09.870Z,1.84
2018-11-26T12:22:37.390Z,1.84
2018-11-26T12:25:05.839Z,1.86
2018-11-26T12:27:33.208Z,1.82
2018-11-26T12:30:00.941Z,1.86
2018-11-26T12:32:28.313Z,1.83
2018-11-26T12:34:56.435Z,1.81
2018-11-26T12:37:23.858Z,1.84
2018-11-26T12:39:51.255Z,1.81
2018-11-26T12:42:18.729Z,1.85
2018-11-26T12:44:50.173Z,1.87
2018-11-26T12:47:18.434Z,1.87
2018-11-26T12:49:46.382Z,1.84
2018-11-26T12:52:13.792Z,1.81
2018-11-26T12:54:41.220Z,1.83
2018-11-26T12:57:08.765Z,1.83
2018-11-26T12:59:36.413Z,1.80
2018-11-26T13:02:03.816Z,1.87
2018-11-26T13:04:32.065Z,1.85
2018-11-26T13:06:59.723Z,1.85
2018-11-26T13:09:27.203Z,1.86
2018-11-26T13:11:55.083Z,1.86
2018-11-26T13:14:22.487Z,1.85
2018-11-26T13:16:49.982Z,1.83
2018-11-26T13:19:18.708Z,1.85
2018-11-26T13:21:46.121Z,1.85
2018-11-26T13:24:13.515Z,1.80
2018-11-26T13:26:41.090Z,1.78
2018-11-26T13:29:09.184Z,1.79
2018-11-26T13:31:36.688Z,1.76
2018-11-26T13:34:04.296Z,1.77
2018-11-26T13:36:32.289Z,1.73
2018-11-26T13:38:59.930Z,1.77
2018-11-26T13:41:28.628Z,1.75
2018-11-26T13:43:56.924Z,1.74
2018-11-26T13:46:24.512Z,1.76
2018-11-26T13:48:52.043Z,1.79
2018-11-26T13:51:19.508Z,1.79
2018-11-26T13:53:47.142Z,1.77
2018-11-26T13:56:14.557Z,1.76
2018-11-26T13:58:42.087Z,1.77
2018-11-26T14:01:09.514Z,1.82
2018-11-26T14:03:37.771Z,1.83
2018-11-26T14:06:06.054Z,1.80
2018-11-26T14:08:33.542Z,1.82
2018-11-26T14:11:01.627Z,1.82
2018-11-26T14:13:29.307Z,1.80
2018-11-26T14:15:56.926Z,1.83
2018-11-26T14:18:24.638Z,1.84
2018-11-26T14:20:52.089Z,1.80
2018-11-26T14:23:20.155Z,1.85
2018-11-26T14:26:03.566Z,1.81
2018-11-26T14:28:47.436Z,1.77
2018-11-26T14:31:15.189Z,1.75
2018-11-26T14:33:43.542Z,1.76
2018-11-26T14:36:11.160Z,1.77
2018-11-26T14:38:41.127Z,1.77
2018-11-26T14:41:08.774Z,1.76
2018-11-26T14:43:37.146Z,1.73
2018-11-26T14:46:05.404Z,1.73
2018-11-26T14:48:32.907Z,1.74
2018-11-26T14:51:00.556Z,1.77
2018-11-26T14:53:28.034Z,1.75
2018-11-26T14:55:57.041Z,1.71
2018-11-26T14:58:24.699Z,1.74
2018-11-26T15:00:52.696Z,1.69
2018-11-26T15:03:23.237Z,1.67
2018-11-26T15:05:50.749Z,1.66
2018-11-26T15:08:18.499Z,1.64
2018-11-26T15:10:45.898Z,1.61
2018-11-26T15:13:19.904Z,1.57
2018-11-26T15:15:47.304Z,1.59
2018-11-26T15:18:14.633Z,1.55
2018-11-26T15:20:41.991Z,1.52
2018-11-26T15:23:09.302Z,1.51
2018-11-26T15:25:37.241Z,1.50
2018-11-26T15:28:09.245Z,1.48
2018-11-26T15:30:37.234Z,1.51
2018-11-26T15:33:05.296Z,1.51
2018-11-26T15:35:32.809Z,1.50
2018-11-26T15:38:00.138Z,1.53
2018-11-26T15:40:27.422Z,1.54
2018-11-26T15:42:54.802Z,1.51
2018-11-26T15:45:24.185Z,1.54
2018-11-26T15:47:52.444Z,1.52
2018-11-26T15:50:20.657Z,1.51
2018-11-26T15:52:47.951Z,1.55
2018-11-26T15:55:16.623Z,1.55
2018-11-26T15:57:43.912Z,1.56
2018-11-26T16:00:32.062Z,1.55
2018-11-26T16:02:59.375Z,1.58
2018-11-26T16:05:28.697Z,1.58
2018-11-26T16:08:01.913Z,1.62
2018-11-26T16:10:29.285Z,1.66
2018-11-26T16:12:58.961Z,1.64
2018-11-26T16:15:28.698Z,1.64
2018-11-26T16:17:57.813Z,1.68
2018-11-26T16:20:25.944Z,1.69
2018-11-26T16:22:53.348Z,1.67
2018-11-26T16:25:21.980Z,1.71
2018-11-26T16:27:50.387Z,1.71
2018-11-26T16:30:18.339Z,1.72
2018-11-26T16:32:50.317Z,1.74
2018-11-26T16:35:19.219Z,1.73
2018-11-26T16:37:46.622Z,1.76
2018-11-26T16:40:15.082Z,1.73
2018-11-26T16:42:42.410Z,1.78
2018-11-26T16:45:16.492Z,1.82
2018-11-26T16:47:44.888Z,1.76
2018-11-26T16:50:13.374Z,1.76
2018-11-26T16:52:47.453Z,1.77
2018-11-26T16:55:15.651Z,1.78
2018-11-26T16:57:43.563Z,1.81
2018-11-26T17:00:13.232Z,1.77
2018-11-26T17:02:42.245Z,1.80
2018-11-26T17:05:26.394Z,1.80
2018-11-26T17:08:08.194Z,1.78
2018-11-26T17:10:49.499Z,1.75
2018-11-26T17:13:32.781Z,1.74
2018-11-26T17:16:00.147Z,1.69
2018-11-26T17:18:27.476Z,1.72
2018-11-26T17:20:54.745Z,1.68
2018-11-26T17:23:22.072Z,1.69
2018-11-26T17:25:49.408Z,1.66
2018-11-26T17:28:17.379Z,1.72
2018-11-26T17:30:45.412Z,1.69
2018-11-26T17:33:13.111Z,1.74
2018-11-26T17:35:40.504Z,1.73
2018-11-26T17:38:07.924Z,1.76
2018-11-26T17:40:36.093Z,1.77
2018-11-26T17:43:03.558Z,1.76
2018-11-26T17:45:30.966Z,1.78
2018-11-26T17:47:59.197Z,1.78
2018-11-26T17:50:37.156Z,1.79
2018-11-26T17:53:06.355Z,1.81
2018-11-26T17:55:42.322Z,1.83
2018-11-26T17:58:09.664Z,1.83
2018-11-26T18:00:37.067Z,1.85
2018-11-26T18:03:05.031Z,1.87
2018-11-26T18:05:32.430Z,1.86
2018-11-26T18:08:04.437Z,1.88
2018-11-26T18:10:31.839Z,1.89
2018-11-26T18:12:59.273Z,1.90
2018-11-26T18:15:27.927Z,1.89
2018-11-26T18:17:55.743Z,1.92
2018-11-26T18:20:23.630Z,1.93
2018-11-26T18:22:54.243Z,1.90
2018-11-26T18:25:22.530Z,1.90
2018-11-26T18:27:53.952Z,1.92
2018-11-26T18:30:23.312Z,1.93
2018-11-26T18:32:50.895Z,1.91
2018-11-26T18:35:18.612Z,1.89
2018-11-26T18:37:46.119Z,1.90
2018-11-26T18:40:14.689Z,1.90
2018-11-26T18:42:42.466Z,1.93
2018-11-26T18:45:13.447Z,1.92
2018-11-26T18:47:41.242Z,1.95
2018-11-26T18:50:13.011Z,1.92
2018-11-26T18:52:41.467Z,1.94
2018-11-26T18:55:09.812Z,1.94
2018-11-26T18:57:37.155Z,1.94
2018-11-26T19:00:11.253Z,1.94
2018-11-26T19:02:38.733Z,1.99
2018-11-26T19:05:21.479Z,1.93
2018-11-26T19:07:51.081Z,1.92
2018-11-26T19:10:27.227Z,1.99
2018-11-26T19:13:11.106Z,1.96
2018-11-26T19:15:40.303Z,1.99
2018-11-26T19:18:26.208Z,1.96
2018-11-26T19:20:53.898Z,1.95
2018-11-26T19:23:21.740Z,1.95
2018-11-26T19:25:50.529Z,1.93
2018-11-26T19:28:20.463Z,1.97
2018-11-26T19:30:46.082Z,1.95
2018-11-26T19:33:15.900Z,2.18
2018-11-26T19:35:51.961Z,2.25
2018-11-26T19:38:20.397Z,2.28
2018-11-26T19:40:49.197Z,2.25
2018-11-26T19:43:20.140Z,2.30
2018-11-26T19:45:47.421Z,2.32
2018-11-26T19:48:15.285Z,2.28
2018-11-26T19:50:42.585Z,2.24
2018-11-26T19:53:11.753Z,2.10
2018-11-26T19:55:40.250Z,2.03
2018-11-26T19:58:09.312Z,2.04
2018-11-26T20:00:36.975Z,2.05
2018-11-26T20:03:17.381Z,1.99
2018-11-26T20:05:52.589Z,1.93
2018-11-26T20:08:19.925Z,1.93
2018-11-26T20:10:47.391Z,1.88
2018-11-26T20:13:14.653Z,1.82
2018-11-26T20:15:41.932Z,1.82
2018-11-26T20:18:10.293Z,1.90
2018-11-26T20:20:37.736Z,1.92
2018-11-26T20:23:06.304Z,1.90
2018-11-26T20:25:35.516Z,1.94
2018-11-26T20:28:02.833Z,1.92
2018-11-26T20:30:30.171Z,1.92
2018-11-26T20:32:57.496Z,1.86
2018-11-26T20:35:24.787Z,1.91
2018-11-26T20:37:52.155Z,1.92
2018-11-26T20:40:19.734Z,1.83
2018-11-26T20:42:51.908Z,1.84
2018-11-26T20:45:19.314Z,1.82
2018-11-26T20:47:47.797Z,1.79
2018-11-26T20:50:22.269Z,1.81
2018-11-26T20:52:49.944Z,1.76
2018-11-26T20:55:19.285Z,1.69
2018-11-26T20:57:47.295Z,1.63
2018-11-26T21:00:17.833Z,1.68
2018-11-26T21:02:47.269Z,1.69
2018-11-26T21:05:14.863Z,1.67
2018-11-26T21:07:43.030Z,1.65
2018-11-26T21:10:11.624Z,1.60
2018-11-26T21:12:39.283Z,1.59
2018-11-26T21:15:11.781Z,1.59
2018-11-26T21:17:39.615Z,1.60
2018-11-26T21:20:09.790Z,1.55
2018-11-26T21:22:37.739Z,1.55
2018-11-26T21:25:10.037Z,1.60
2018-11-26T21:27:37.425Z,1.58
2018-11-26T21:30:08.271Z,1.58
2018-11-26T21:32:36.253Z,1.61
2018-11-26T21:35:03.958Z,1.63
2018-11-26T21:37:31.237Z,1.64
2018-11-26T21:39:58.481Z,1.66
2018-11-26T21:42:25.844Z,1.63
2018-11-26T21:44:53.195Z,1.65
2018-11-26T21:47:20.884Z,1.68
2018-11-26T21:49:48.524Z,1.67
2018-11-26T21:52:15.837Z,1.67
2018-11-26T21:54:44.064Z,1.69
2018-11-26T21:57:11.489Z,1.64
2018-11-26T21:59:43.859Z,1.63
2018-11-26T22:02:11.353Z,1.60
2018-11-26T22:04:38.818Z,1.60
2018-11-26T22:07:06.447Z,1.60
2018-11-26T22:09:33.908Z,1.54
2018-11-26T22:12:01.501Z,1.50
2018-11-26T22:14:28.800Z,1.51
2018-11-26T22:16:56.052Z,1.50
2018-11-26T22:19:23.319Z,1.47
2018-11-26T22:21:50.585Z,1.47
2018-11-26T22:24:17.896Z,1.49
2018-11-26T22:26:45.234Z,1.51
2018-11-26T22:29:12.478Z,1.47
2018-11-26T22:31:39.788Z,1.48
2018-11-26T22:34:07.297Z,1.46
2018-11-26T22:36:34.584Z,1.48
2018-11-26T22:39:02.012Z,1.45
2018-11-26T22:41:29.299Z,1.43
2018-11-26T22:43:57.815Z,1.42
2018-11-26T22:46:24.128Z,1.39
2018-11-26T22:48:51.460Z,1.36
2018-11-26T22:51:18.663Z,1.30
2018-11-26T22:53:46.032Z,1.31
2018-11-26T22:56:13.329Z,1.23
2018-11-26T22:58:40.653Z,1.19
2018-11-26T23:01:07.940Z,1.22
2018-11-26T23:03:35.366Z,1.22
2018-11-26T23:06:02.731Z,1.24
2018-11-26T23:08:29.975Z,1.21
2018-11-26T23:10:57.297Z,1.15
2018-11-26T23:13:24.514Z,1.18
2018-11-26T23:15:51.824Z,1.19
2018-11-26T23:18:19.147Z,1.22
2018-11-26T23:20:46.415Z,1.19
2018-11-26T23:23:13.720Z,1.13
2018-11-26T23:25:41.016Z,1.09
2018-11-26T23:28:08.383Z,1.08
2018-11-26T23:30:35.706Z,1.08
2018-11-26T23:33:03.824Z,1.08
2018-11-26T23:35:31.140Z,1.08
2018-11-26T23:37:58.357Z,1.09
2018-11-26T23:40:25.675Z,1.04
2018-11-26T23:42:52.921Z,1.04
2018-11-26T23:45:21.556Z,0.99
2018-11-26T23:47:48.850Z,1.01
2018-11-26T23:50:16.701Z,1.00
2018-11-26T23:52:44.390Z,0.99
2018-11-26T23:55:18.387Z,1.02
2018-11-26T23:57:45.787Z,0.98
